createdAt,value
2022-08-17T00:00:16.000Z,1009.73
2022-08-17T00:01:20.000Z,1009.72
2022-08-17T00:02:14.000Z,1009.76
2022-08-17T00:03:20.000Z,1009.75
2022-08-17T00:04:12.000Z,1009.76
2022-08-17T00:05:13.000Z,1009.73
2022-08-17T00:06:20.000Z,1009.75
2022-08-17T00:07:12.000Z,1009.73
2022-08-17T00:08:15.000Z,1009.72
2022-08-17T00:09:13.000Z,1009.70
2022-08-17T00:10:12.000Z,1009.70
2022-08-17T00:11:21.000Z,1009.73
2022-08-17T00:12:13.000Z,1009.74
2022-08-17T00:13:17.000Z,1009.76
2022-08-17T00:14:15.000Z,1009.78
2022-08-17T00:15:13.000Z,1009.78
2022-08-17T00:16:22.000Z,1009.74
2022-08-17T00:17:12.000Z,1009.71
2022-08-17T00:18:13.000Z,1009.69
2022-08-17T00:18:13.000Z,1009.69
2022-08-17T00:19:15.000Z,1009.69
2022-08-17T00:20:14.000Z,1009.66
2022-08-17T00:21:14.000Z,1009.70
2022-08-17T00:22:13.000Z,1009.70
2022-08-17T00:23:15.000Z,1009.73
2022-08-17T00:24:13.000Z,1009.70
2022-08-17T00:25:17.000Z,1009.74
2022-08-17T00:26:13.000Z,1009.72
2022-08-17T00:27:13.000Z,1009.69
2022-08-17T00:28:15.000Z,1009.67
2022-08-17T00:29:13.000Z,1009.69
2022-08-17T00:30:13.000Z,1009.68
2022-08-17T00:31:13.000Z,1009.69
2022-08-17T00:32:13.000Z,1009.68
2022-08-17T00:32:13.000Z,1009.68
2022-08-17T00:33:23.000Z,1009.66
2022-08-17T00:34:13.000Z,1009.69
2022-08-17T00:35:16.000Z,1009.66
2022-08-17T00:36:13.000Z,1009.66
2022-08-17T00:37:13.000Z,1009.69
2022-08-17T00:38:14.000Z,1009.65
2022-08-17T00:39:13.000Z,1009.66
2022-08-17T00:40:13.000Z,1009.60
2022-08-17T00:41:16.000Z,1009.62
2022-08-17T00:42:16.000Z,1009.61
2022-08-17T00:43:29.000Z,1009.59
2022-08-17T00:44:14.000Z,1009.58
2022-08-17T00:45:16.000Z,1009.57
2022-08-17T00:46:19.000Z,1009.63
2022-08-17T00:47:13.000Z,1009.64
2022-08-17T00:48:13.000Z,1009.61
2022-08-17T00:49:15.000Z,1009.58
2022-08-17T00:50:15.000Z,1009.57
2022-08-17T00:51:22.000Z,1009.58
2022-08-17T00:52:17.000Z,1009.55
2022-08-17T00:53:12.000Z,1009.62
2022-08-17T00:54:29.000Z,1009.60
2022-08-17T00:55:13.000Z,1009.66
2022-08-17T00:56:17.000Z,1009.68
2022-08-17T00:57:19.000Z,1009.67
2022-08-17T00:58:13.000Z,1009.66
2022-08-17T00:59:19.000Z,1009.68
2022-08-17T01:00:17.000Z,1009.67
2022-08-17T01:01:13.000Z,1009.65
2022-08-17T01:02:14.000Z,1009.65
2022-08-17T01:03:20.000Z,1009.66
2022-08-17T01:04:15.000Z,1009.66
2022-08-17T01:05:18.000Z,1009.64
2022-08-17T01:06:13.000Z,1009.66
2022-08-17T01:07:13.000Z,1009.66
2022-08-17T01:08:16.000Z,1009.64
2022-08-17T01:09:14.000Z,1009.64
2022-08-17T01:10:14.000Z,1009.65
2022-08-17T01:10:14.000Z,1009.65
2022-08-17T01:11:12.000Z,1009.62
2022-08-17T01:12:12.000Z,1009.62
2022-08-17T01:13:14.000Z,1009.59
2022-08-17T01:14:12.000Z,1009.59
2022-08-17T01:15:13.000Z,1009.59
2022-08-17T01:16:21.000Z,1009.59
2022-08-17T01:17:12.000Z,1009.56
2022-08-17T01:18:13.000Z,1009.57
2022-08-17T01:19:17.000Z,1009.57
2022-08-17T01:20:12.000Z,1009.56
2022-08-17T01:21:22.000Z,1009.61
2022-08-17T01:22:19.000Z,1009.59
2022-08-17T01:23:13.000Z,1009.58
2022-08-17T01:24:13.000Z,1009.59
2022-08-17T01:25:13.000Z,1009.55
2022-08-17T01:26:12.000Z,1009.58
2022-08-17T01:27:15.000Z,1009.55
2022-08-17T01:28:13.000Z,1009.54
2022-08-17T01:29:13.000Z,1009.52
2022-08-17T01:30:14.000Z,1009.54
2022-08-17T01:31:13.000Z,1009.53
2022-08-17T01:32:13.000Z,1009.54
2022-08-17T01:33:12.000Z,1009.56
2022-08-17T01:34:16.000Z,1009.59
2022-08-17T01:35:13.000Z,1009.59
2022-08-17T01:36:12.000Z,1009.59
2022-08-17T01:37:13.000Z,1009.58
2022-08-17T01:38:12.000Z,1009.63
2022-08-17T01:39:23.000Z,1009.63
2022-08-17T01:40:23.000Z,1009.59
2022-08-17T01:41:14.000Z,1009.64
2022-08-17T01:42:31.000Z,1009.65
2022-08-17T01:43:18.000Z,1009.63
2022-08-17T01:44:14.000Z,1009.67
2022-08-17T01:45:19.000Z,1009.68
2022-08-17T01:46:21.000Z,1009.66
2022-08-17T01:47:13.000Z,1009.69
2022-08-17T01:48:13.000Z,1009.72
2022-08-17T01:49:12.000Z,1009.72
2022-08-17T01:50:19.000Z,1009.71
2022-08-17T01:51:14.000Z,1009.73
2022-08-17T01:52:13.000Z,1009.73
2022-08-17T01:53:19.000Z,1009.70
2022-08-17T01:54:15.000Z,1009.69
2022-08-17T01:55:16.000Z,1009.72
2022-08-17T01:56:17.000Z,1009.69
2022-08-17T01:57:13.000Z,1009.73
2022-08-17T01:58:13.000Z,1009.73
2022-08-17T01:59:14.000Z,1009.74
2022-08-17T02:00:13.000Z,1009.70
2022-08-17T02:01:16.000Z,1009.70
2022-08-17T02:02:13.000Z,1009.72
2022-08-17T02:03:13.000Z,1009.69
2022-08-17T02:04:13.000Z,1009.73
2022-08-17T02:05:13.000Z,1009.72
2022-08-17T02:06:13.000Z,1009.68
2022-08-17T02:07:13.000Z,1009.67
2022-08-17T02:08:16.000Z,1009.69
2022-08-17T02:09:14.000Z,1009.71
2022-08-17T02:10:13.000Z,1009.70
2022-08-17T02:11:17.000Z,1009.74
2022-08-17T02:12:13.000Z,1009.78
2022-08-17T02:13:13.000Z,1009.75
2022-08-17T02:14:13.000Z,1009.75
2022-08-17T02:15:14.000Z,1009.78
2022-08-17T02:16:13.000Z,1009.75
2022-08-17T02:17:13.000Z,1009.77
2022-08-17T02:18:14.000Z,1009.78
2022-08-17T02:19:14.000Z,1009.78
2022-08-17T02:20:13.000Z,1009.79
2022-08-17T02:21:13.000Z,1009.78
2022-08-17T02:22:14.000Z,1009.79
2022-08-17T02:23:13.000Z,1009.80
2022-08-17T02:24:20.000Z,1009.77
2022-08-17T02:25:16.000Z,1009.80
2022-08-17T02:26:13.000Z,1009.82
2022-08-17T02:27:13.000Z,1009.80
2022-08-17T02:28:14.000Z,1009.84
2022-08-17T02:29:14.000Z,1009.83
2022-08-17T02:30:14.000Z,1009.81
2022-08-17T02:30:14.000Z,1009.81
2022-08-17T02:31:13.000Z,1009.81
2022-08-17T02:32:21.000Z,1009.86
2022-08-17T02:33:14.000Z,1009.84
2022-08-17T02:34:14.000Z,1009.83
2022-08-17T02:35:13.000Z,1009.84
2022-08-17T02:36:13.000Z,1009.83
2022-08-17T02:37:14.000Z,1009.86
2022-08-17T02:38:13.000Z,1009.84
2022-08-17T02:39:13.000Z,1009.84
2022-08-17T02:40:13.000Z,1009.86
2022-08-17T02:41:13.000Z,1009.84
2022-08-17T02:42:13.000Z,1009.85
2022-08-17T02:43:13.000Z,1009.86
2022-08-17T02:44:13.000Z,1009.86
2022-08-17T02:45:17.000Z,1009.83
2022-08-17T02:46:13.000Z,1009.83
2022-08-17T02:47:13.000Z,1009.83
2022-08-17T02:48:13.000Z,1009.81
2022-08-17T02:49:14.000Z,1009.80
2022-08-17T02:50:16.000Z,1009.86
2022-08-17T02:51:13.000Z,1009.84
2022-08-17T02:52:13.000Z,1009.88
2022-08-17T02:53:13.000Z,1009.83
2022-08-17T02:54:12.000Z,1009.84
2022-08-17T02:55:20.000Z,1009.86
2022-08-17T02:56:13.000Z,1009.88
2022-08-17T02:57:12.000Z,1009.87
2022-08-17T02:58:13.000Z,1009.91
2022-08-17T02:59:12.000Z,1009.90
2022-08-17T03:00:21.000Z,1009.90
2022-08-17T03:01:12.000Z,1009.87
2022-08-17T03:02:12.000Z,1009.86
2022-08-17T03:03:17.000Z,1009.85
2022-08-17T03:04:12.000Z,1009.86
2022-08-17T03:05:15.000Z,1009.86
2022-08-17T03:06:12.000Z,1009.86
2022-08-17T03:07:13.000Z,1009.87
2022-08-17T03:08:14.000Z,1009.85
2022-08-17T03:09:15.000Z,1009.84
2022-08-17T03:10:13.000Z,1009.83
2022-08-17T03:11:12.000Z,1009.84
2022-08-17T03:12:13.000Z,1009.85
2022-08-17T03:13:13.000Z,1009.86
2022-08-17T03:14:12.000Z,1009.86
2022-08-17T03:15:15.000Z,1009.87
2022-08-17T03:16:13.000Z,1009.84
2022-08-17T03:17:12.000Z,1009.86
2022-08-17T03:18:15.000Z,1009.82
2022-08-17T03:19:12.000Z,1009.85
2022-08-17T03:20:14.000Z,1009.85
2022-08-17T03:21:12.000Z,1009.83
2022-08-17T03:22:12.000Z,1009.82
2022-08-17T03:23:12.000Z,1009.84
2022-08-17T03:24:13.000Z,1009.87
2022-08-17T03:25:16.000Z,1009.84
2022-08-17T03:26:14.000Z,1009.83
2022-08-17T03:27:12.000Z,1009.80
2022-08-17T03:28:12.000Z,1009.79
2022-08-17T03:29:17.000Z,1009.77
2022-08-17T03:30:13.000Z,1009.77
2022-08-17T03:31:13.000Z,1009.76
2022-08-17T03:32:14.000Z,1009.79
2022-08-17T03:33:13.000Z,1009.79
2022-08-17T03:34:14.000Z,1009.76
2022-08-17T03:35:15.000Z,1009.77
2022-08-17T03:36:12.000Z,1009.77
2022-08-17T03:37:13.000Z,1009.77
2022-08-17T03:38:13.000Z,1009.81
2022-08-17T03:39:12.000Z,1009.80
2022-08-17T03:40:13.000Z,1009.79
2022-08-17T03:41:12.000Z,1009.80
2022-08-17T03:42:20.000Z,1009.81
2022-08-17T03:43:13.000Z,1009.84
2022-08-17T03:44:12.000Z,1009.86
2022-08-17T03:45:16.000Z,1009.88
2022-08-17T03:46:17.000Z,1009.87
2022-08-17T03:47:18.000Z,1009.89
2022-08-17T03:48:18.000Z,1009.87
2022-08-17T03:49:17.000Z,1009.86
2022-08-17T03:50:18.000Z,1009.87
2022-08-17T03:51:22.000Z,1009.91
2022-08-17T03:52:17.000Z,1009.92
2022-08-17T03:53:17.000Z,1009.97
2022-08-17T03:54:18.000Z,1010.01
2022-08-17T03:55:18.000Z,1010.07
2022-08-17T03:56:28.000Z,1010.09
2022-08-17T03:57:12.000Z,1010.16
2022-08-17T03:58:12.000Z,1010.19
2022-08-17T03:59:16.000Z,1010.25
2022-08-17T04:00:13.000Z,1010.34
2022-08-17T04:01:13.000Z,1010.45
2022-08-17T04:02:19.000Z,1010.53
2022-08-17T04:03:13.000Z,1010.54
2022-08-17T04:04:12.000Z,1010.46
2022-08-17T04:05:13.000Z,1010.40
2022-08-17T04:06:13.000Z,1010.40
2022-08-17T04:07:12.000Z,1010.52
2022-08-17T04:08:12.000Z,1010.59
2022-08-17T04:09:13.000Z,1010.61
2022-08-17T04:10:12.000Z,1010.56
2022-08-17T04:11:12.000Z,1010.58
2022-08-17T04:12:15.000Z,1010.60
2022-08-17T04:13:12.000Z,1010.53
2022-08-17T04:14:12.000Z,1010.51
2022-08-17T04:15:13.000Z,1010.47
2022-08-17T04:16:12.000Z,1010.44
2022-08-17T04:17:13.000Z,1010.39
2022-08-17T04:18:16.000Z,1010.37
2022-08-17T04:19:12.000Z,1010.37
2022-08-17T04:20:16.000Z,1010.36
2022-08-17T04:21:12.000Z,1010.43
2022-08-17T04:22:12.000Z,1010.46
2022-08-17T04:23:16.000Z,1010.44
2022-08-17T04:24:12.000Z,1010.52
2022-08-17T04:25:15.000Z,1010.53
2022-08-17T04:26:14.000Z,1010.51
2022-08-17T04:27:13.000Z,1010.53
2022-08-17T04:28:14.000Z,1010.55
2022-08-17T04:29:13.000Z,1010.58
2022-08-17T04:30:14.000Z,1010.59
2022-08-17T04:31:13.000Z,1010.63
2022-08-17T04:32:13.000Z,1010.58
2022-08-17T04:33:16.000Z,1010.63
2022-08-17T04:34:13.000Z,1010.57
2022-08-17T04:35:19.000Z,1010.57
2022-08-17T04:36:14.000Z,1010.59
2022-08-17T04:37:13.000Z,1010.58
2022-08-17T04:38:21.000Z,1010.58
2022-08-17T04:39:13.000Z,1010.65
2022-08-17T04:40:20.000Z,1010.62
2022-08-17T04:41:18.000Z,1010.68
2022-08-17T04:42:16.000Z,1010.64
2022-08-17T04:43:17.000Z,1010.65
2022-08-17T04:44:13.000Z,1010.69
2022-08-17T04:45:13.000Z,1010.70
2022-08-17T04:46:16.000Z,1010.68
2022-08-17T04:47:13.000Z,1010.68
2022-08-17T04:48:13.000Z,1010.68
2022-08-17T04:49:13.000Z,1010.72
2022-08-17T04:50:13.000Z,1010.74
2022-08-17T04:51:22.000Z,1010.77
2022-08-17T04:52:13.000Z,1010.71
2022-08-17T04:53:13.000Z,1010.74
2022-08-17T04:54:16.000Z,1010.73
2022-08-17T04:55:14.000Z,1010.74
2022-08-17T04:56:15.000Z,1010.72
2022-08-17T04:57:12.000Z,1010.73
2022-08-17T04:58:12.000Z,1010.73
2022-08-17T04:59:17.000Z,1010.75
2022-08-17T05:00:13.000Z,1010.80
2022-08-17T05:01:13.000Z,1010.83
2022-08-17T05:02:12.000Z,1010.85
2022-08-17T05:03:12.000Z,1010.89
2022-08-17T05:04:18.000Z,1010.88
2022-08-17T05:05:18.000Z,1010.91
2022-08-17T05:06:12.000Z,1010.92
2022-08-17T05:07:12.000Z,1010.92
2022-08-17T05:08:12.000Z,1010.95
2022-08-17T05:09:12.000Z,1010.97
2022-08-17T05:10:12.000Z,1010.99
2022-08-17T05:11:12.000Z,1010.97
2022-08-17T05:12:13.000Z,1010.98
2022-08-17T05:13:23.000Z,1010.96
2022-08-17T05:14:12.000Z,1010.93
2022-08-17T05:15:14.000Z,1010.92
2022-08-17T05:16:12.000Z,1010.95
2022-08-17T05:17:12.000Z,1010.87
2022-08-17T05:18:14.000Z,1010.83
2022-08-17T05:19:12.000Z,1010.85
2022-08-17T05:20:12.000Z,1010.82
2022-08-17T05:21:13.000Z,1010.81
2022-08-17T05:22:12.000Z,1010.80
2022-08-17T05:23:15.000Z,1010.85
2022-08-17T05:24:12.000Z,1010.94
2022-08-17T05:25:12.000Z,1010.96
2022-08-17T05:26:15.000Z,1010.92
2022-08-17T05:27:12.000Z,1010.88
2022-08-17T05:28:14.000Z,1010.86
2022-08-17T05:29:12.000Z,1010.85
2022-08-17T05:30:13.000Z,1010.87
2022-08-17T05:31:13.000Z,1010.94
2022-08-17T05:32:13.000Z,1010.98
2022-08-17T05:33:18.000Z,1010.95
2022-08-17T05:34:12.000Z,1011.02
2022-08-17T05:35:13.000Z,1011.05
2022-08-17T05:36:13.000Z,1011.01
2022-08-17T05:37:12.000Z,1011.01
2022-08-17T05:38:13.000Z,1011.03
2022-08-17T05:39:13.000Z,1011.00
2022-08-17T05:40:12.000Z,1011.04
2022-08-17T05:41:12.000Z,1011.10
2022-08-17T05:42:17.000Z,1011.08
2022-08-17T05:43:19.000Z,1011.08
2022-08-17T05:44:13.000Z,1011.05
2022-08-17T05:45:18.000Z,1010.99
2022-08-17T05:46:21.000Z,1011.00
2022-08-17T05:47:12.000Z,1011.04
2022-08-17T05:48:13.000Z,1011.10
2022-08-17T05:49:15.000Z,1011.10
2022-08-17T05:50:21.000Z,1011.09
2022-08-17T05:51:46.000Z,1011.01
2022-08-17T05:52:28.000Z,1011.03
2022-08-17T05:53:22.000Z,1011.03
2022-08-17T05:54:22.000Z,1010.99
2022-08-17T05:55:35.000Z,1010.95
2022-08-17T05:56:38.000Z,1010.94
2022-08-17T05:57:31.000Z,1010.87
2022-08-17T05:58:23.000Z,1010.82
2022-08-17T05:59:24.000Z,1010.78
2022-08-17T06:00:19.000Z,1010.78
2022-08-17T06:01:40.000Z,1010.74
2022-08-17T06:02:25.000Z,1010.78
2022-08-17T06:03:37.000Z,1010.78
2022-08-17T06:04:29.000Z,1010.81
2022-08-17T06:05:43.000Z,1010.85
2022-08-17T06:06:33.000Z,1010.85
2022-08-17T06:07:33.000Z,1010.88
2022-08-17T06:08:23.000Z,1010.89
2022-08-17T06:09:23.000Z,1010.86
2022-08-17T06:10:28.000Z,1010.88
2022-08-17T06:11:23.000Z,1010.89
2022-08-17T06:12:32.000Z,1010.85
2022-08-17T06:13:33.000Z,1010.87
2022-08-17T06:14:23.000Z,1010.86
2022-08-17T06:15:36.000Z,1010.89
2022-08-17T06:16:24.000Z,1010.89
2022-08-17T06:17:17.000Z,1010.96
2022-08-17T06:18:13.000Z,1010.93
2022-08-17T06:19:22.000Z,1010.95
2022-08-17T06:20:14.000Z,1010.90
2022-08-17T06:21:16.000Z,1010.93
2022-08-17T06:22:17.000Z,1010.88
2022-08-17T06:23:37.000Z,1010.86
2022-08-17T06:24:23.000Z,1010.87
2022-08-17T06:25:20.000Z,1010.87
2022-08-17T06:26:18.000Z,1010.91
2022-08-17T06:27:31.000Z,1010.90
2022-08-17T06:28:23.000Z,1010.94
2022-08-17T06:29:35.000Z,1010.96
2022-08-17T06:30:18.000Z,1010.98
2022-08-17T06:31:19.000Z,1010.97
2022-08-17T06:32:13.000Z,1010.96
2022-08-17T06:33:22.000Z,1010.99
2022-08-17T06:34:13.000Z,1011.01
2022-08-17T06:35:16.000Z,1011.00
2022-08-17T06:36:33.000Z,1011.01
2022-08-17T06:37:44.000Z,1011.02
2022-08-17T06:38:26.000Z,1011.07
2022-08-17T06:39:32.000Z,1011.06
2022-08-17T06:40:23.000Z,1011.06
2022-08-17T06:41:23.000Z,1011.01
2022-08-17T06:42:25.000Z,1011.04
2022-08-17T06:43:23.000Z,1011.05
2022-08-17T06:44:28.000Z,1011.02
2022-08-17T06:45:18.000Z,1011.01
2022-08-17T06:46:36.000Z,1011.00
2022-08-17T06:47:27.000Z,1010.95
2022-08-17T06:48:23.000Z,1010.97
2022-08-17T06:49:19.000Z,1010.96
2022-08-17T06:50:26.000Z,1010.93
2022-08-17T06:51:20.000Z,1010.90
2022-08-17T06:52:25.000Z,1010.92
2022-08-17T06:53:34.000Z,1010.89
2022-08-17T06:54:29.000Z,1010.93
2022-08-17T06:55:22.000Z,1011.00
2022-08-17T06:56:25.000Z,1011.08
2022-08-17T06:57:20.000Z,1011.16
2022-08-17T06:58:16.000Z,1011.23
2022-08-17T06:59:17.000Z,1011.21
2022-08-17T07:00:15.000Z,1011.15
2022-08-17T07:01:20.000Z,1011.12
2022-08-17T07:02:18.000Z,1011.16
2022-08-17T07:03:44.000Z,1011.22
2022-08-17T07:04:17.000Z,1011.33
2022-08-17T07:05:14.000Z,1011.26
2022-08-17T07:06:21.000Z,1011.27
2022-08-17T07:07:18.000Z,1011.30
2022-08-17T07:08:42.000Z,1011.33
2022-08-17T07:09:21.000Z,1011.31
2022-08-17T07:10:12.000Z,1011.36
2022-08-17T07:11:17.000Z,1011.27
2022-08-17T07:12:18.000Z,1011.26
2022-08-17T07:13:23.000Z,1011.26
2022-08-17T07:14:22.000Z,1011.25
2022-08-17T07:15:19.000Z,1011.21
2022-08-17T07:16:23.000Z,1011.16
2022-08-17T07:17:14.000Z,1011.14
2022-08-17T07:18:12.000Z,1011.14
2022-08-17T07:19:16.000Z,1011.15
2022-08-17T07:20:16.000Z,1011.17
2022-08-17T07:21:23.000Z,1011.19
2022-08-17T07:22:22.000Z,1011.17
2022-08-17T07:23:23.000Z,1011.22
2022-08-17T07:24:32.000Z,1011.21
2022-08-17T07:25:15.000Z,1011.23
2022-08-17T07:26:12.000Z,1011.15
2022-08-17T07:27:22.000Z,1011.13
2022-08-17T07:28:20.000Z,1011.06
2022-08-17T07:29:16.000Z,1011.09
2022-08-17T07:30:27.000Z,1011.07
2022-08-17T07:31:16.000Z,1011.11
2022-08-17T07:32:16.000Z,1011.11
2022-08-17T07:33:19.000Z,1011.14
2022-08-17T07:34:13.000Z,1011.19
2022-08-17T07:35:23.000Z,1011.23
2022-08-17T07:36:23.000Z,1011.22
2022-08-17T07:37:18.000Z,1011.26
2022-08-17T07:38:28.000Z,1011.30
2022-08-17T07:39:25.000Z,1011.30
2022-08-17T07:40:20.000Z,1011.38
2022-08-17T07:41:13.000Z,1011.36
2022-08-17T07:42:12.000Z,1011.31
2022-08-17T07:43:18.000Z,1011.33
2022-08-17T07:44:14.000Z,1011.34
2022-08-17T07:45:29.000Z,1011.30
2022-08-17T07:46:23.000Z,1011.25
2022-08-17T07:47:20.000Z,1011.21
2022-08-17T07:48:22.000Z,1011.24
2022-08-17T07:49:35.000Z,1011.28
2022-08-17T07:50:26.000Z,1011.31
2022-08-17T07:51:19.000Z,1011.23
2022-08-17T07:52:23.000Z,1011.20
2022-08-17T07:53:19.000Z,1011.13
2022-08-17T07:54:22.000Z,1011.10
2022-08-17T07:55:25.000Z,1011.12
2022-08-17T07:56:24.000Z,1011.09
2022-08-17T07:57:29.000Z,1011.10
2022-08-17T07:58:18.000Z,1011.15
2022-08-17T07:59:32.000Z,1011.22
2022-08-17T08:00:16.000Z,1011.30
2022-08-17T08:01:13.000Z,1011.31
2022-08-17T08:02:23.000Z,1011.34
2022-08-17T08:03:21.000Z,1011.37
2022-08-17T08:04:27.000Z,1011.38
2022-08-17T08:05:22.000Z,1011.44
2022-08-17T08:06:19.000Z,1011.40
2022-08-17T08:07:25.000Z,1011.43
2022-08-17T08:08:22.000Z,1011.40
2022-08-17T08:09:31.000Z,1011.43
2022-08-17T08:10:22.000Z,1011.44
2022-08-17T08:11:28.000Z,1011.43
2022-08-17T08:12:22.000Z,1011.46
2022-08-17T08:13:22.000Z,1011.51
2022-08-17T08:14:30.000Z,1011.40
2022-08-17T08:15:19.000Z,1011.42
2022-08-17T08:16:30.000Z,1011.37
2022-08-17T08:17:22.000Z,1011.37
2022-08-17T08:18:34.000Z,1011.36
2022-08-17T08:19:14.000Z,1011.36
2022-08-17T08:20:12.000Z,1011.31
2022-08-17T08:21:22.000Z,1011.32
2022-08-17T08:22:22.000Z,1011.28
2022-08-17T08:23:23.000Z,1011.28
2022-08-17T08:24:22.000Z,1011.29
2022-08-17T08:25:30.000Z,1011.34
2022-08-17T08:26:22.000Z,1011.35
2022-08-17T08:27:28.000Z,1011.41
2022-08-17T08:28:22.000Z,1011.42
2022-08-17T08:29:32.000Z,1011.44
2022-08-17T08:30:20.000Z,1011.47
2022-08-17T08:31:44.000Z,1011.44
2022-08-17T08:32:31.000Z,1011.42
2022-08-17T08:33:29.000Z,1011.39
2022-08-17T08:34:23.000Z,1011.34
2022-08-17T08:35:28.000Z,1011.32
2022-08-17T08:36:36.000Z,1011.34
2022-08-17T08:37:29.000Z,1011.35
2022-08-17T08:38:33.000Z,1011.35
2022-08-17T08:39:20.000Z,1011.36
2022-08-17T08:40:30.000Z,1011.41
2022-08-17T08:41:41.000Z,1011.45
2022-08-17T08:42:23.000Z,1011.48
2022-08-17T08:43:25.000Z,1011.46
2022-08-17T08:44:27.000Z,1011.43
2022-08-17T08:45:21.000Z,1011.37
2022-08-17T08:46:27.000Z,1011.32
2022-08-17T08:47:26.000Z,1011.31
2022-08-17T08:48:23.000Z,1011.31
2022-08-17T08:49:23.000Z,1011.35
2022-08-17T08:50:35.000Z,1011.35
2022-08-17T08:51:23.000Z,1011.34
2022-08-17T08:52:33.000Z,1011.33
2022-08-17T08:53:36.000Z,1011.34
2022-08-17T08:54:26.000Z,1011.36
2022-08-17T08:55:23.000Z,1011.34
2022-08-17T08:56:33.000Z,1011.32
2022-08-17T08:57:23.000Z,1011.30
2022-08-17T08:58:20.000Z,1011.35
2022-08-17T08:59:28.000Z,1011.42
2022-08-17T09:00:20.000Z,1011.28
2022-08-17T09:01:23.000Z,1011.30
2022-08-17T09:02:25.000Z,1011.27
2022-08-17T09:03:27.000Z,1011.27
2022-08-17T09:04:22.000Z,1011.23
2022-08-17T09:05:32.000Z,1011.21
2022-08-17T09:06:33.000Z,1011.18
2022-08-17T09:07:22.000Z,1011.18
2022-08-17T09:08:22.000Z,1011.18
2022-08-17T09:09:32.000Z,1011.16
2022-08-17T09:10:29.000Z,1011.15
2022-08-17T09:11:24.000Z,1011.08
2022-08-17T09:12:22.000Z,1011.10
2022-08-17T09:13:35.000Z,1011.13
2022-08-17T09:14:21.000Z,1011.13
2022-08-17T09:15:23.000Z,1011.14
2022-08-17T09:16:23.000Z,1011.06
2022-08-17T09:17:17.000Z,1011.01
2022-08-17T09:18:19.000Z,1010.88
2022-08-17T09:19:21.000Z,1010.81
2022-08-17T09:20:20.000Z,1010.77
2022-08-17T09:21:22.000Z,1010.74
2022-08-17T09:22:32.000Z,1010.79
2022-08-17T09:23:24.000Z,1010.84
2022-08-17T09:24:21.000Z,1010.91
2022-08-17T09:25:19.000Z,1010.94
2022-08-17T09:26:22.000Z,1010.92
2022-08-17T09:27:18.000Z,1010.89
2022-08-17T09:28:18.000Z,1010.93
2022-08-17T09:29:14.000Z,1011.05
2022-08-17T09:30:13.000Z,1011.13
2022-08-17T09:31:25.000Z,1011.10
2022-08-17T09:32:20.000Z,1011.17
2022-08-17T09:33:17.000Z,1011.22
2022-08-17T09:34:21.000Z,1011.29
2022-08-17T09:35:21.000Z,1011.25
2022-08-17T09:36:22.000Z,1011.23
2022-08-17T09:37:22.000Z,1011.16
2022-08-17T09:38:35.000Z,1011.15
2022-08-17T09:39:22.000Z,1011.17
2022-08-17T09:40:22.000Z,1011.19
2022-08-17T09:41:31.000Z,1011.15
2022-08-17T09:42:22.000Z,1011.13
2022-08-17T09:43:26.000Z,1011.16
2022-08-17T09:44:24.000Z,1011.13
2022-08-17T09:45:22.000Z,1011.16
2022-08-17T09:46:23.000Z,1011.13
2022-08-17T09:47:32.000Z,1011.03
2022-08-17T09:48:18.000Z,1011.04
2022-08-17T09:49:23.000Z,1011.01
2022-08-17T09:50:22.000Z,1011.05
2022-08-17T09:51:26.000Z,1011.14
2022-08-17T09:52:22.000Z,1011.24
2022-08-17T09:53:12.000Z,1011.35
2022-08-17T09:54:20.000Z,1011.36
2022-08-17T09:55:12.000Z,1011.32
2022-08-17T09:56:22.000Z,1011.35
2022-08-17T09:57:22.000Z,1011.37
2022-08-17T09:58:35.000Z,1011.32
2022-08-17T09:59:35.000Z,1011.31
2022-08-17T10:00:24.000Z,1011.27
2022-08-17T10:01:22.000Z,1011.26
2022-08-17T10:02:35.000Z,1011.27
2022-08-17T10:03:27.000Z,1011.31
2022-08-17T10:04:30.000Z,1011.35
2022-08-17T10:05:24.000Z,1011.47
2022-08-17T10:06:20.000Z,1011.48
2022-08-17T10:07:22.000Z,1011.42
2022-08-17T10:08:34.000Z,1011.38
2022-08-17T10:09:34.000Z,1011.42
2022-08-17T10:10:41.000Z,1011.36
2022-08-17T10:11:22.000Z,1011.24
2022-08-17T10:12:35.000Z,1011.18
2022-08-17T10:13:35.000Z,1011.22
2022-08-17T10:14:21.000Z,1011.31
2022-08-17T10:15:22.000Z,1011.46
2022-08-17T10:16:24.000Z,1011.60
2022-08-17T10:17:23.000Z,1011.75
2022-08-17T10:18:22.000Z,1011.83
2022-08-17T10:19:38.000Z,1011.80
2022-08-17T10:20:17.000Z,1011.77
2022-08-17T10:21:20.000Z,1011.78
2022-08-17T10:22:25.000Z,1011.86
2022-08-17T10:23:25.000Z,1011.91
2022-08-17T10:24:25.000Z,1012.03
2022-08-17T10:25:18.000Z,1011.99
2022-08-17T10:26:21.000Z,1012.01
2022-08-17T10:27:19.000Z,1012.13
2022-08-17T10:28:19.000Z,1012.17
2022-08-17T10:29:20.000Z,1012.20
2022-08-17T10:30:23.000Z,1012.24
2022-08-17T10:31:57.000Z,1012.22
2022-08-17T10:32:47.000Z,1012.16
2022-08-17T10:33:47.000Z,1012.16
2022-08-17T10:50:22.000Z,1012.57
2022-08-17T10:51:22.000Z,1012.59
2022-08-17T10:52:37.000Z,1012.60
2022-08-17T10:53:58.000Z,1012.56
2022-08-17T10:54:58.000Z,1012.61
2022-08-17T10:55:55.000Z,1012.62
2022-08-17T10:57:38.000Z,1012.67
2022-08-17T10:58:22.000Z,1012.63
2022-08-17T10:59:22.000Z,1012.63
2022-08-17T11:00:35.000Z,1012.65
2022-08-17T11:01:12.000Z,1012.70
2022-08-17T11:02:32.000Z,1012.71
2022-08-17T11:03:18.000Z,1012.73
2022-08-17T11:04:37.000Z,1012.74
2022-08-17T11:05:53.000Z,1012.76
2022-08-17T11:06:58.000Z,1012.76
2022-08-17T11:07:48.000Z,1012.86
2022-08-17T11:09:30.000Z,1012.85
2022-08-17T11:10:35.000Z,1012.79
2022-08-17T11:11:36.000Z,1012.81
2022-08-17T11:12:22.000Z,1012.77
2022-08-17T11:13:22.000Z,1012.73
2022-08-17T11:14:32.000Z,1012.73
2022-08-17T11:15:33.000Z,1012.64
2022-08-17T11:16:58.000Z,1012.66
2022-08-17T11:17:58.000Z,1012.66
2022-08-17T11:18:53.000Z,1012.69
2022-08-17T12:16:15.000Z,1012.34
2022-08-17T12:17:37.000Z,1012.35
2022-08-17T12:18:58.000Z,1012.33
2022-08-17T12:19:52.000Z,1012.23
2022-08-17T12:20:37.000Z,1012.18
2022-08-17T12:26:51.000Z,1012.12
2022-08-17T12:27:22.000Z,1012.14
2022-08-17T12:28:22.000Z,1012.09
2022-08-17T12:29:15.000Z,1012.06
2022-08-17T12:30:17.000Z,1012.05
2022-08-17T12:31:35.000Z,1012.04
2022-08-17T12:32:17.000Z,1012.02
2022-08-17T12:33:13.000Z,1011.97
2022-08-17T12:34:17.000Z,1011.98
2022-08-17T12:35:38.000Z,1011.95
2022-08-17T12:36:58.000Z,1011.91
2022-08-17T12:37:58.000Z,1011.88
2022-08-17T12:38:44.000Z,1011.85
2022-08-17T13:11:28.000Z,1011.39
2022-08-17T13:12:24.000Z,1011.42
2022-08-17T13:13:20.000Z,1011.48
2022-08-17T13:14:17.000Z,1011.56
2022-08-17T13:15:54.000Z,1011.62
2022-08-17T13:16:54.000Z,1011.66
2022-08-17T13:17:54.000Z,1011.67
2022-08-17T13:29:35.000Z,1011.71
2022-08-17T13:30:21.000Z,1011.70
2022-08-17T13:31:22.000Z,1011.68
2022-08-17T13:32:25.000Z,1011.62
2022-08-17T13:33:22.000Z,1011.54
2022-08-17T13:34:29.000Z,1011.54
2022-08-17T13:35:23.000Z,1011.50
2022-08-17T13:36:25.000Z,1011.44
2022-08-17T13:37:27.000Z,1011.45
2022-08-17T13:38:29.000Z,1011.39
2022-08-17T13:39:19.000Z,1011.42
2022-08-17T13:40:30.000Z,1011.40
2022-08-17T13:41:23.000Z,1011.35
2022-08-17T13:42:22.000Z,1011.33
2022-08-17T13:43:32.000Z,1011.28
2022-08-17T13:44:23.000Z,1011.23
2022-08-17T13:45:23.000Z,1011.21
2022-08-17T13:46:23.000Z,1011.22
2022-08-17T13:47:16.000Z,1011.18
2022-08-17T13:48:31.000Z,1011.17
2022-08-17T13:49:13.000Z,1011.23
2022-08-17T13:50:19.000Z,1011.25
2022-08-17T13:51:21.000Z,1011.27
2022-08-17T13:52:32.000Z,1011.23
2022-08-17T13:53:22.000Z,1011.23
2022-08-17T13:54:25.000Z,1011.21
2022-08-17T13:55:19.000Z,1011.23
2022-08-17T13:56:28.000Z,1011.21
2022-08-17T13:57:21.000Z,1011.16
2022-08-17T13:58:19.000Z,1011.18
2022-08-17T13:59:27.000Z,1011.16
2022-08-17T14:00:32.000Z,1011.09
2022-08-17T14:01:23.000Z,1011.05
2022-08-17T14:02:15.000Z,1011.03
2022-08-17T14:03:13.000Z,1011.00
2022-08-17T14:04:19.000Z,1010.98